Melvin L King — WUT9921 — position and weather

sailwx.info

Track history (hours):
 
Tides and Currents Weather Stations Pressure Air Temp Water Temp Dewpoint Dewpoint Depression Visibility Wind Speed Wind Dir Waves Ship Positions

Melvin L King

Owner: YAZOO RIVER TOWING INC, VICKSBURG, MS. More information available from US FCC via Universal Licensing System and Coast Guard Vessel Documentation Center.

Last reported at 2018-Apr-22 01:41 UTC. Time now 2018-Apr-23 05:08 UTC.
Position N 31°59' W 091°10'.

Length 21 m; draft 2.5 m.

Type: Tow > 200 m length. MMSI: 367005760.

Date/timePositionNaut miles runAvg speedWind from/ knotsBaromVisibWave heightAir tempDewpointWater temp
2018-Apr-22 01:41N 31°59' W 091°10'211.0
2018-Apr-22 01:29N 31°59' W 091°08'510.9
2018-Apr-22 00:59N 32°03' W 091°03'510.1
2018-Apr-22 00:30N 32°07' W 091°06'5 9.6
2018-Apr-22 00:00N 32°08' W 091°01'611.4
2018-Apr-21 23:30N 32°13' W 090°59'510.5
2018-Apr-21 23:00N 32°18' W 090°56'4 7.3
2018-Apr-21 22:30N 32°21' W 090°54'2 3.5
2018-Apr-21 22:00N 32°22' W 090°53'0 0.6
2018-Apr-21 21:30N 32°22' W 090°53'1 2.0
2018-Apr-21 20:57N 32°23' W 090°53'0 0.0
2018-Apr-21 20:27N 32°23' W 090°53'0 0.0
2018-Apr-21 19:56N 32°23' W 090°53'0 0.0
2018-Apr-21 19:30N 32°23' W 090°53'0 0.0
2018-Apr-21 18:57N 32°23' W 090°53'0 0.0
2018-Apr-21 18:30N 32°23' W 090°53'0 0.8
2018-Apr-21 18:00N 32°23' W 090°53'1 2.2
2018-Apr-21 17:30N 32°22' W 090°53'0 0.4
2018-Apr-21 17:00N 32°22' W 090°53'0 0.0
2018-Apr-21 16:30N 32°22' W 090°53'0 0.0
2018-Apr-21 16:00N 32°22' W 090°53'0 0.0
2018-Apr-21 15:30N 32°22' W 090°53'0 0.0
2018-Apr-21 15:00N 32°22' W 090°53'1 1.3
2018-Apr-21 14:30N 32°21' W 090°53'3 5.3
2018-Apr-21 14:00N 32°19' W 090°55'0 0.6
2018-Apr-21 13:30N 32°19' W 090°55'0 0.1
2018-Apr-21 13:00N 32°19' W 090°55'0 0.0
2018-Apr-21 12:30N 32°19' W 090°55'1 2.5
2018-Apr-21 12:00N 32°18' W 090°56'2 3.9
2018-Apr-21 11:30N 32°16' W 090°57'2 4.8
2018-Apr-21 11:00N 32°14' W 090°59'3 5.1
2018-Apr-21 10:30N 32°12' W 090°59'2 4.7
2018-Apr-21 10:00N 32°09' W 090°60'2 4.5
2018-Apr-21 09:30N 32°08' W 091°01'2 4.0
2018-Apr-21 09:00N 32°08' W 091°04'2 3.6
2018-Apr-21 08:30N 32°07' W 091°06'2 4.0
2018-Apr-21 08:00N 32°05' W 091°05'3 5.1
2018-Apr-21 07:30N 32°03' W 091°05'2 4.7
2018-Apr-21 07:00N 32°01' W 091°05'3 4.8
2018-Apr-21 06:28N 31°59' W 091°08'  
2018-Apr-16 21:31N 32°07' W 091°06'0 8.9
2018-Apr-16 21:28N 32°07' W 091°06'4 9.3
2018-Apr-16 21:00N 32°08' W 091°01'510.7
2018-Apr-16 20:30N 32°13' W 090°59'5 9.9
2018-Apr-16 20:01N 32°17' W 090°56'4 8.2
2018-Apr-16 19:31N 32°20' W 090°54'3 5.5
2018-Apr-16 19:01N 32°23' W 090°53'1 2.0
2018-Apr-16 18:30N 32°23' W 090°54'0 0.0
2018-Apr-16 18:00N 32°23' W 090°54'0 0.0
2018-Apr-16 17:31N 32°23' W 090°54'0 0.0
2018-Apr-16 17:01N 32°23' W 090°54'0 0.0
2018-Apr-16 16:30N 32°23' W 090°54'0 0.0
2018-Apr-16 16:00N 32°23' W 090°54'0 0.0
2018-Apr-16 15:30N 32°23' W 090°54'0 0.0
2018-Apr-16 15:01N 32°23' W 090°54'0 0.0
2018-Apr-16 14:31N 32°23' W 090°54'0 0.0
2018-Apr-16 14:00N 32°23' W 090°54'0 0.0
2018-Apr-16 13:31N 32°23' W 090°54'0 0.0
2018-Apr-16 13:01N 32°23' W 090°54'0 0.0
2018-Apr-16 12:30N 32°23' W 090°54'0 0.0
2018-Apr-16 12:00N 32°23' W 090°54'0 0.0
2018-Apr-16 11:30N 32°23' W 090°54'0 0.0
2018-Apr-16 11:01N 32°23' W 090°54'0 0.0
2018-Apr-16 10:30N 32°23' W 090°54'0 0.0
2018-Apr-16 10:00N 32°23' W 090°54'0 0.0
2018-Apr-16 09:30N 32°23' W 090°54'0 0.0
2018-Apr-16 09:01N 32°23' W 090°54'0 0.0
2018-Apr-16 08:30N 32°23' W 090°54'0 0.0
2018-Apr-16 08:01N 32°23' W 090°54'0 0.0
2018-Apr-16 07:30N 32°23' W 090°54'0 0.0
2018-Apr-16 07:00N 32°23' W 090°54'0 0.0
2018-Apr-16 06:31N 32°23' W 090°54'0 0.0
2018-Apr-16 06:01N 32°23' W 090°54'1 1.6
2018-Apr-16 05:30N 32°23' W 090°53'1 2.4
2018-Apr-16 05:00N 32°23' W 090°54'0 0.4
2018-Apr-16 04:31N 32°23' W 090°55'0 0.0
2018-Apr-16 04:01N 32°23' W 090°55'0 0.0
2018-Apr-16 03:30N 32°23' W 090°55'0 0.0
2018-Apr-16 03:00N 32°23' W 090°55'0 0.0
2018-Apr-16 02:30N 32°23' W 090°55'0 0.0
2018-Apr-16 02:00N 32°23' W 090°55'0 0.0
2018-Apr-16 01:31N 32°23' W 090°55'0 0.0
2018-Apr-16 01:00N 32°23' W 090°55'0 0.0
2018-Apr-16 00:31N 32°23' W 090°55'0 0.0
2018-Apr-16 00:01N 32°23' W 090°55'0 0.0
2018-Apr-15 23:30N 32°23' W 090°55'0 0.1
2018-Apr-15 23:00N 32°23' W 090°55'0 0.3
2018-Apr-15 22:31N 32°23' W 090°55'0 0.7
2018-Apr-15 22:01N 32°23' W 090°54'2 3.2
2018-Apr-15 21:30N 32°22' W 090°53'0 0.2
2018-Apr-15 21:00N 32°22' W 090°53'1 1.3
2018-Apr-15 20:30N 32°22' W 090°53'2 4.7
2018-Apr-15 20:01N 32°19' W 090°54'3 5.2
2018-Apr-15 19:30N 32°18' W 090°56'2 4.7
2018-Apr-15 19:00N 32°16' W 090°58'3 5.6
2018-Apr-15 18:30N 32°13' W 090°59'3 5.3
2018-Apr-15 18:00N 32°10' W 090°60'2 4.8
2018-Apr-15 17:30N 32°08' W 091°01'2 4.6
2018-Apr-15 17:00N 32°08' W 091°03'3 5.5
2018-Apr-15 16:30N 32°07' W 091°06'2 4.7
2018-Apr-15 16:01N 32°05' W 091°05'  
Track history (hours):
 
Tides and Currents Weather Stations Pressure Air Temp Water Temp Dewpoint Dewpoint Depression Visibility Wind Speed Wind Dir Waves Ship Positions

Melvin L King

Owner: YAZOO RIVER TOWING INC, VICKSBURG, MS. More information available from US FCC via Universal Licensing System and Coast Guard Vessel Documentation Center.

Last reported at 2018-Apr-22 01:41 UTC. Time now 2018-Apr-23 05:08 UTC.
Position N 31°59' W 091°10'.

Length 21 m; draft 2.5 m.

Type: Tow > 200 m length. MMSI: 367005760.

Date/timePositionNaut miles runAvg speedWind from/ knotsBaromVisibWave heightAir tempDewpointWater temp
2018-Apr-22 01:41N 31°59' W 091°10'211.0
2018-Apr-22 01:29N 31°59' W 091°08'510.9
2018-Apr-22 00:59N 32°03' W 091°03'510.1
2018-Apr-22 00:30N 32°07' W 091°06'5 9.6
2018-Apr-22 00:00N 32°08' W 091°01'611.4
2018-Apr-21 23:30N 32°13' W 090°59'510.5
2018-Apr-21 23:00N 32°18' W 090°56'4 7.3
2018-Apr-21 22:30N 32°21' W 090°54'2 3.5
2018-Apr-21 22:00N 32°22' W 090°53'0 0.6
2018-Apr-21 21:30N 32°22' W 090°53'1 2.0
2018-Apr-21 20:57N 32°23' W 090°53'0 0.0
2018-Apr-21 20:27N 32°23' W 090°53'0 0.0
2018-Apr-21 19:56N 32°23' W 090°53'0 0.0
2018-Apr-21 19:30N 32°23' W 090°53'0 0.0
2018-Apr-21 18:57N 32°23' W 090°53'0 0.0
2018-Apr-21 18:30N 32°23' W 090°53'0 0.8
2018-Apr-21 18:00N 32°23' W 090°53'1 2.2
2018-Apr-21 17:30N 32°22' W 090°53'0 0.4
2018-Apr-21 17:00N 32°22' W 090°53'0 0.0
2018-Apr-21 16:30N 32°22' W 090°53'0 0.0
2018-Apr-21 16:00N 32°22' W 090°53'0 0.0
2018-Apr-21 15:30N 32°22' W 090°53'0 0.0
2018-Apr-21 15:00N 32°22' W 090°53'1 1.3
2018-Apr-21 14:30N 32°21' W 090°53'3 5.3
2018-Apr-21 14:00N 32°19' W 090°55'0 0.6
2018-Apr-21 13:30N 32°19' W 090°55'0 0.1
2018-Apr-21 13:00N 32°19' W 090°55'0 0.0
2018-Apr-21 12:30N 32°19' W 090°55'1 2.5
2018-Apr-21 12:00N 32°18' W 090°56'2 3.9
2018-Apr-21 11:30N 32°16' W 090°57'2 4.8
2018-Apr-21 11:00N 32°14' W 090°59'3 5.1
2018-Apr-21 10:30N 32°12' W 090°59'2 4.7
2018-Apr-21 10:00N 32°09' W 090°60'2 4.5
2018-Apr-21 09:30N 32°08' W 091°01'2 4.0
2018-Apr-21 09:00N 32°08' W 091°04'2 3.6
2018-Apr-21 08:30N 32°07' W 091°06'2 4.0
2018-Apr-21 08:00N 32°05' W 091°05'3 5.1
2018-Apr-21 07:30N 32°03' W 091°05'2 4.7
2018-Apr-21 07:00N 32°01' W 091°05'3 4.8
2018-Apr-21 06:28N 31°59' W 091°08'  
2018-Apr-16 21:31N 32°07' W 091°06'0 8.9
2018-Apr-16 21:28N 32°07' W 091°06'4 9.3
2018-Apr-16 21:00N 32°08' W 091°01'510.7
2018-Apr-16 20:30N 32°13' W 090°59'5 9.9
2018-Apr-16 20:01N 32°17' W 090°56'4 8.2
2018-Apr-16 19:31N 32°20' W 090°54'3 5.5
2018-Apr-16 19:01N 32°23' W 090°53'1 2.0
2018-Apr-16 18:30N 32°23' W 090°54'0 0.0
2018-Apr-16 18:00N 32°23' W 090°54'0 0.0
2018-Apr-16 17:31N 32°23' W 090°54'0 0.0
2018-Apr-16 17:01N 32°23' W 090°54'0 0.0
2018-Apr-16 16:30N 32°23' W 090°54'0 0.0
2018-Apr-16 16:00N 32°23' W 090°54'0 0.0
2018-Apr-16 15:30N 32°23' W 090°54'0 0.0
2018-Apr-16 15:01N 32°23' W 090°54'0 0.0
2018-Apr-16 14:31N 32°23' W 090°54'0 0.0
2018-Apr-16 14:00N 32°23' W 090°54'0 0.0
2018-Apr-16 13:31N 32°23' W 090°54'0 0.0
2018-Apr-16 13:01N 32°23' W 090°54'0 0.0
2018-Apr-16 12:30N 32°23' W 090°54'0 0.0
2018-Apr-16 12:00N 32°23' W 090°54'0 0.0
2018-Apr-16 11:30N 32°23' W 090°54'0 0.0
2018-Apr-16 11:01N 32°23' W 090°54'0 0.0
2018-Apr-16 10:30N 32°23' W 090°54'0 0.0
2018-Apr-16 10:00N 32°23' W 090°54'0 0.0
2018-Apr-16 09:30N 32°23' W 090°54'0 0.0
2018-Apr-16 09:01N 32°23' W 090°54'0 0.0
2018-Apr-16 08:30N 32°23' W 090°54'0 0.0
2018-Apr-16 08:01N 32°23' W 090°54'0 0.0
2018-Apr-16 07:30N 32°23' W 090°54'0 0.0
2018-Apr-16 07:00N 32°23' W 090°54'0 0.0
2018-Apr-16 06:31N 32°23' W 090°54'0 0.0
2018-Apr-16 06:01N 32°23' W 090°54'1 1.6
2018-Apr-16 05:30N 32°23' W 090°53'1 2.4
2018-Apr-16 05:00N 32°23' W 090°54'0 0.4
2018-Apr-16 04:31N 32°23' W 090°55'0 0.0
2018-Apr-16 04:01N 32°23' W 090°55'0 0.0
2018-Apr-16 03:30N 32°23' W 090°55'0 0.0
2018-Apr-16 03:00N 32°23' W 090°55'0 0.0
2018-Apr-16 02:30N 32°23' W 090°55'0 0.0
2018-Apr-16 02:00N 32°23' W 090°55'0 0.0
2018-Apr-16 01:31N 32°23' W 090°55'0 0.0
2018-Apr-16 01:00N 32°23' W 090°55'0 0.0
2018-Apr-16 00:31N 32°23' W 090°55'0 0.0
2018-Apr-16 00:01N 32°23' W 090°55'0 0.0
2018-Apr-15 23:30N 32°23' W 090°55'0 0.1
2018-Apr-15 23:00N 32°23' W 090°55'0 0.3
2018-Apr-15 22:31N 32°23' W 090°55'0 0.7
2018-Apr-15 22:01N 32°23' W 090°54'2 3.2
2018-Apr-15 21:30N 32°22' W 090°53'0 0.2
2018-Apr-15 21:00N 32°22' W 090°53'1 1.3
2018-Apr-15 20:30N 32°22' W 090°53'2 4.7
2018-Apr-15 20:01N 32°19' W 090°54'3 5.2
2018-Apr-15 19:30N 32°18' W 090°56'2 4.7
2018-Apr-15 19:00N 32°16' W 090°58'3 5.6
2018-Apr-15 18:30N 32°13' W 090°59'3 5.3
2018-Apr-15 18:00N 32°10' W 090°60'2 4.8
2018-Apr-15 17:30N 32°08' W 091°01'2 4.6
2018-Apr-15 17:00N 32°08' W 091°03'3 5.5
2018-Apr-15 16:30N 32°07' W 091°06'2 4.7
2018-Apr-15 16:01N 32°05' W 091°05'  

Dump ship's entire track history